createdAt,value
2023-03-06T00:01:59.512Z,0.85
2023-03-06T00:04:26.054Z,0.75
2023-03-06T00:06:54.050Z,0.63
2023-03-06T00:09:20.436Z,0.77
2023-03-06T00:11:46.921Z,0.80
2023-03-06T00:14:13.428Z,0.80
2023-03-06T00:16:40.044Z,1.02
2023-03-06T00:19:06.509Z,0.77
2023-03-06T00:21:32.939Z,0.88
2023-03-06T00:23:59.354Z,0.80
2023-03-06T00:26:25.849Z,0.65
2023-03-06T00:28:52.303Z,0.68
2023-03-06T00:31:18.808Z,1.00
2023-03-06T00:33:45.210Z,0.75
2023-03-06T00:36:11.675Z,1.00
2023-03-06T00:38:38.112Z,1.00
2023-03-06T00:41:12.304Z,1.10
2023-03-06T00:43:39.155Z,1.07
2023-03-06T00:46:05.945Z,1.05
2023-03-06T00:48:33.552Z,0.90
2023-03-06T00:51:00.432Z,1.00
2023-03-06T00:53:26.966Z,1.10
2023-03-06T00:55:53.503Z,1.10
2023-03-06T00:58:20.120Z,1.23
2023-03-06T01:00:46.713Z,1.20
2023-03-06T01:03:13.212Z,1.20
2023-03-06T01:05:40.174Z,1.40
2023-03-06T01:08:06.714Z,1.33
2023-03-06T01:10:33.694Z,1.40
2023-03-06T01:13:00.103Z,1.58
2023-03-06T01:15:26.484Z,1.65
2023-03-06T01:17:54.487Z,1.90
2023-03-06T01:20:21.752Z,1.60
2023-03-06T01:22:48.305Z,1.77
2023-03-06T01:25:14.760Z,1.65
2023-03-06T01:27:41.226Z,1.92
2023-03-06T01:30:08.375Z,1.70
2023-03-06T01:32:34.923Z,1.97
2023-03-06T01:35:04.038Z,2.00
2023-03-06T01:37:30.519Z,2.80
2023-03-06T01:39:56.975Z,2.53
2023-03-06T01:42:23.439Z,2.58
2023-03-06T01:45:01.609Z,2.77
2023-03-06T01:47:28.120Z,3.03
2023-03-06T01:49:55.153Z,3.28
2023-03-06T01:52:30.173Z,2.85
2023-03-06T01:55:05.612Z,2.72
2023-03-06T01:57:35.699Z,3.33
2023-03-06T02:00:09.636Z,3.55
2023-03-06T02:02:37.222Z,3.58
2023-03-06T02:05:05.976Z,3.53
2023-03-06T02:07:33.459Z,3.65
2023-03-06T02:09:59.897Z,3.83
2023-03-06T02:12:26.803Z,3.58
2023-03-06T02:14:53.646Z,4.22
2023-03-06T02:17:22.679Z,4.22
2023-03-06T02:19:58.129Z,4.22
2023-03-06T02:22:29.901Z,4.50
2023-03-06T02:25:04.352Z,4.05
2023-03-06T02:27:31.079Z,4.22
2023-03-06T02:29:57.544Z,4.53
2023-03-06T02:32:24.027Z,4.63
2023-03-06T02:34:56.523Z,5.03
2023-03-06T02:37:24.438Z,4.55
2023-03-06T02:39:57.051Z,5.00
2023-03-06T02:42:25.775Z,4.30
2023-03-06T02:44:53.643Z,5.13
2023-03-06T02:47:20.038Z,4.93
2023-03-06T02:49:46.598Z,4.95
2023-03-06T02:52:13.256Z,5.10
2023-03-06T02:54:39.890Z,5.10
2023-03-06T02:57:06.275Z,4.60
2023-03-06T02:59:33.089Z,4.33
2023-03-06T03:01:59.600Z,4.65
2023-03-06T03:04:26.155Z,4.82
2023-03-06T03:06:52.624Z,4.95
2023-03-06T03:09:19.080Z,4.65
2023-03-06T03:11:45.812Z,4.40
2023-03-06T03:14:12.316Z,4.53
2023-03-06T03:16:39.243Z,4.80
2023-03-06T03:19:05.753Z,4.93
2023-03-06T03:21:32.177Z,5.05
2023-03-06T03:23:58.611Z,4.03
2023-03-06T03:26:25.064Z,4.82
2023-03-06T03:28:51.525Z,4.97
2023-03-06T03:31:18.213Z,4.30
2023-03-06T03:33:44.719Z,4.78
2023-03-06T03:36:11.200Z,4.47
2023-03-06T03:38:37.670Z,4.45
2023-03-06T03:41:04.752Z,4.88
2023-03-06T03:43:31.740Z,5.05
2023-03-06T03:45:58.275Z,4.82
2023-03-06T03:48:24.735Z,4.00
2023-03-06T03:50:51.207Z,4.38
2023-03-06T03:53:17.667Z,4.05
2023-03-06T03:55:47.895Z,4.05
2023-03-06T03:58:14.345Z,3.75
2023-03-06T04:00:40.885Z,4.43
2023-03-06T04:03:07.307Z,3.42
2023-03-06T04:05:33.952Z,4.47
2023-03-06T04:08:03.036Z,3.40
2023-03-06T04:10:29.595Z,3.25
2023-03-06T04:12:56.927Z,3.47
2023-03-06T04:15:23.661Z,2.80
2023-03-06T04:17:50.289Z,3.33
2023-03-06T04:20:16.909Z,4.07
2023-03-06T04:22:43.406Z,4.07
2023-03-06T04:25:10.255Z,3.60
2023-03-06T04:27:36.677Z,3.60
2023-03-06T04:30:04.249Z,3.70
2023-03-06T04:32:30.719Z,3.30
2023-03-06T04:34:57.224Z,3.70
2023-03-06T04:37:25.805Z,3.87
2023-03-06T04:39:52.693Z,3.38
2023-03-06T04:42:19.156Z,3.40
2023-03-06T04:44:45.792Z,3.40
2023-03-06T04:47:12.808Z,3.63
2023-03-06T04:49:39.255Z,3.27
2023-03-06T04:52:06.139Z,3.17
2023-03-06T04:54:32.868Z,2.90
2023-03-06T04:56:59.404Z,2.92
2023-03-06T04:59:25.853Z,3.17
2023-03-06T05:01:52.328Z,2.43
2023-03-06T05:04:18.771Z,3.00
2023-03-06T05:06:45.233Z,2.78
2023-03-06T05:09:11.724Z,2.55
2023-03-06T05:11:38.201Z,2.20
2023-03-06T05:14:04.689Z,2.00
2023-03-06T05:16:31.196Z,2.03
2023-03-06T05:18:57.735Z,2.05
2023-03-06T05:21:24.281Z,1.52
2023-03-06T05:23:50.852Z,1.80
2023-03-06T05:26:17.536Z,1.40
2023-03-06T05:28:44.022Z,1.38
2023-03-06T05:31:10.535Z,1.70
2023-03-06T05:33:37.060Z,1.25
2023-03-06T05:36:03.994Z,1.13
2023-03-06T05:38:30.421Z,1.30
2023-03-06T05:40:56.902Z,1.23
2023-03-06T05:43:23.607Z,1.23
2023-03-06T05:45:53.062Z,1.23
2023-03-06T05:48:19.606Z,1.10
2023-03-06T05:50:45.990Z,1.47
2023-03-06T05:53:12.367Z,1.35
2023-03-06T05:55:38.953Z,1.33
2023-03-06T05:58:05.423Z,1.08
2023-03-06T06:00:32.174Z,1.17
2023-03-06T06:03:02.168Z,1.50
2023-03-06T06:05:28.642Z,1.27
2023-03-06T06:07:55.063Z,1.30
2023-03-06T06:10:21.567Z,1.38
2023-03-06T06:12:47.957Z,1.70
2023-03-06T06:15:15.333Z,1.50
2023-03-06T06:17:41.768Z,1.50
2023-03-06T06:20:09.337Z,1.33
2023-03-06T06:22:37.981Z,1.17
2023-03-06T06:25:05.936Z,1.13
2023-03-06T06:27:32.412Z,1.10
2023-03-06T06:29:58.897Z,0.77
2023-03-06T06:32:25.481Z,0.80
2023-03-06T06:34:52.007Z,0.80
2023-03-06T06:37:18.446Z,0.45
2023-03-06T06:39:44.904Z,0.50
2023-03-06T06:42:29.409Z,0.45
2023-03-06T06:44:58.167Z,0.55
2023-03-06T06:47:25.783Z,0.55
2023-03-06T06:49:54.123Z,0.38
2023-03-06T06:52:21.137Z,0.43
2023-03-06T06:54:47.737Z,0.40
2023-03-06T06:57:14.818Z,0.47
2023-03-06T06:59:41.525Z,0.40
2023-03-06T07:02:13.790Z,0.40
2023-03-06T07:04:49.285Z,0.40
2023-03-06T07:07:24.746Z,0.20
2023-03-06T07:09:51.998Z,0.22
2023-03-06T07:12:18.462Z,0.30
2023-03-06T07:14:44.918Z,0.30
2023-03-06T07:17:11.422Z,0.30
2023-03-06T07:19:38.680Z,0.20
2023-03-06T07:22:06.119Z,0.28
2023-03-06T07:24:32.753Z,0.30
2023-03-06T07:26:59.166Z,0.20
2023-03-06T07:29:25.624Z,0.37
2023-03-06T07:31:52.368Z,0.20
2023-03-06T07:34:18.861Z,0.25
2023-03-06T07:36:45.308Z,0.30
2023-03-06T07:39:11.836Z,0.20
2023-03-06T07:41:38.287Z,0.20
2023-03-06T07:44:04.719Z,0.40
2023-03-06T07:46:31.210Z,0.20
2023-03-06T07:48:58.210Z,0.20
2023-03-06T07:51:24.686Z,0.10
2023-03-06T07:53:51.248Z,0.20
2023-03-06T07:56:17.719Z,0.32
2023-03-06T07:58:46.429Z,0.20
2023-03-06T08:01:16.406Z,0.10
2023-03-06T08:03:43.490Z,0.22
2023-03-06T08:06:13.055Z,0.20
2023-03-06T08:08:42.185Z,0.10
2023-03-06T08:11:10.848Z,0.20
2023-03-06T08:13:38.199Z,0.10
2023-03-06T08:16:05.767Z,0.10
2023-03-06T08:18:33.080Z,0.17
2023-03-06T08:21:05.562Z,0.00
2023-03-06T08:23:33.056Z,0.10
2023-03-06T08:26:01.710Z,0.20
2023-03-06T08:28:30.857Z,0.30
2023-03-06T08:30:57.970Z,0.00
2023-03-06T08:33:25.230Z,0.10
2023-03-06T08:35:52.560Z,0.00
2023-03-06T08:38:19.119Z,0.10
2023-03-06T08:40:45.509Z,0.10
2023-03-06T08:43:14.070Z,0.07
2023-03-06T08:45:40.952Z,0.10
2023-03-06T08:48:07.448Z,0.00
2023-03-06T08:50:33.844Z,0.10
2023-03-06T08:53:00.342Z,0.10
2023-03-06T08:55:28.089Z,0.10
2023-03-06T08:57:54.602Z,0.10
2023-03-06T09:00:21.262Z,0.10
2023-03-06T09:02:47.720Z,0.03
2023-03-06T09:05:14.144Z,0.10
2023-03-06T09:07:40.536Z,0.00
2023-03-06T09:10:08.376Z,0.10
2023-03-06T09:12:48.902Z,0.05
2023-03-06T09:15:16.951Z,0.10
2023-03-06T09:17:43.421Z,0.10
2023-03-06T09:20:11.220Z,0.00
2023-03-06T09:22:38.161Z,0.08
2023-03-06T09:25:06.514Z,0.10
2023-03-06T09:27:33.034Z,0.00
2023-03-06T09:29:59.603Z,0.10
2023-03-06T09:32:26.265Z,0.00
2023-03-06T09:34:52.767Z,0.10
2023-03-06T09:37:19.225Z,0.20
2023-03-06T09:39:45.709Z,0.03
2023-03-06T09:42:23.669Z,0.00
2023-03-06T09:45:00.083Z,0.10
2023-03-06T09:47:51.938Z,0.10
2023-03-06T09:50:28.493Z,0.00
2023-03-06T09:53:15.371Z,0.08
2023-03-06T09:55:44.172Z,0.10
2023-03-06T09:58:17.767Z,0.10
2023-03-06T10:01:00.719Z,0.10
2023-03-06T10:03:29.529Z,0.00
2023-03-06T10:06:11.640Z,0.10
2023-03-06T10:08:59.813Z,0.00
2023-03-06T10:11:58.727Z,0.20
2023-03-06T10:14:47.756Z,0.30
2023-03-06T10:17:22.084Z,0.10
2023-03-06T10:19:49.331Z,0.00
2023-03-06T10:22:38.284Z,0.03
2023-03-06T10:25:12.014Z,0.00
2023-03-06T10:27:57.770Z,0.00
2023-03-06T10:30:33.586Z,0.10
2023-03-06T10:33:21.048Z,0.10
2023-03-06T10:35:53.380Z,0.00
2023-03-06T10:38:19.822Z,0.10
2023-03-06T10:41:19.749Z,0.20
2023-03-06T10:44:04.355Z,0.03
2023-03-06T10:46:36.386Z,0.10
2023-03-06T10:49:07.294Z,0.00
2023-03-06T10:51:35.512Z,0.00
2023-03-06T10:54:14.121Z,0.00
2023-03-06T10:56:45.601Z,0.10
2023-03-06T10:59:18.853Z,0.10
2023-03-06T11:01:50.903Z,0.10
2023-03-06T11:04:33.595Z,0.00
2023-03-06T11:07:16.808Z,0.00
2023-03-06T11:09:59.450Z,0.10
2023-03-06T11:12:32.642Z,0.03
2023-03-06T11:15:14.320Z,0.00
2023-03-06T11:18:04.434Z,0.00
2023-03-06T11:20:51.571Z,0.10
2023-03-06T11:23:28.636Z,0.00
2023-03-06T11:26:02.323Z,0.10
2023-03-06T11:28:37.294Z,0.00
2023-03-06T11:31:08.392Z,0.10
2023-03-06T11:33:55.142Z,0.00
2023-03-06T11:36:37.019Z,0.00
2023-03-06T11:39:14.543Z,0.10
2023-03-06T11:42:01.946Z,0.08
2023-03-06T11:44:49.930Z,0.23
2023-03-06T11:47:36.737Z,0.20
2023-03-06T11:50:25.897Z,0.30
2023-03-06T11:53:05.004Z,0.20
2023-03-06T11:55:39.990Z,0.13
2023-03-06T11:58:43.893Z,0.30
2023-03-06T12:01:16.827Z,0.30
2023-03-06T12:04:11.266Z,0.10
2023-03-06T12:06:54.512Z,0.15
2023-03-06T12:09:32.587Z,0.20
2023-03-06T12:12:08.728Z,0.20
2023-03-06T12:15:02.973Z,0.52
2023-03-06T12:17:53.724Z,0.20
2023-03-06T12:20:28.310Z,0.20
2023-03-06T12:23:15.471Z,0.40
2023-03-06T12:26:22.812Z,0.27
2023-03-06T12:29:21.130Z,0.43
2023-03-06T12:32:24.831Z,0.40
2023-03-06T12:35:15.942Z,0.45
2023-03-06T12:38:24.449Z,0.43
2023-03-06T12:41:09.447Z,0.50
2023-03-06T12:44:12.805Z,0.52
2023-03-06T12:46:46.973Z,0.60
2023-03-06T12:49:33.174Z,0.50
2023-03-06T12:52:01.291Z,0.35
2023-03-06T12:54:30.887Z,0.33
2023-03-06T12:57:00.183Z,0.40
2023-03-06T12:59:49.213Z,0.38
2023-03-06T13:02:30.921Z,0.60
2023-03-06T13:05:16.258Z,0.45
2023-03-06T13:08:11.380Z,0.40
2023-03-06T13:10:42.173Z,0.50
2023-03-06T13:13:31.794Z,0.70
2023-03-06T13:16:09.906Z,0.60
2023-03-06T13:18:36.261Z,0.52
2023-03-06T13:21:04.356Z,1.07
2023-03-06T13:23:33.496Z,1.13
2023-03-06T13:26:05.456Z,1.30
2023-03-06T13:28:46.132Z,1.13
2023-03-06T13:31:26.334Z,1.45
2023-03-06T13:34:06.020Z,1.13
2023-03-06T13:36:34.279Z,1.88
2023-03-06T13:39:09.492Z,1.80
2023-03-06T13:41:55.127Z,1.92
2023-03-06T13:44:24.846Z,2.83
2023-03-06T13:47:04.886Z,3.40
2023-03-06T13:49:33.141Z,1.92
2023-03-06T13:52:10.098Z,3.60
2023-03-06T13:54:48.644Z,3.20
2023-03-06T13:57:36.856Z,3.50
2023-03-06T14:00:21.565Z,3.17
2023-03-06T14:03:17.269Z,3.97
2023-03-06T14:05:49.099Z,4.22
2023-03-06T14:08:21.669Z,3.53
2023-03-06T14:10:59.163Z,4.47
2023-03-06T14:13:38.391Z,4.70
2023-03-06T14:16:20.428Z,4.38
2023-03-06T14:18:49.481Z,4.50
2023-03-06T14:21:25.912Z,3.85
2023-03-06T14:24:00.847Z,4.80
2023-03-06T14:26:32.419Z,3.57
2023-03-06T14:29:00.890Z,3.25
2023-03-06T14:31:42.559Z,2.88
2023-03-06T14:34:18.163Z,2.50
2023-03-06T14:36:48.490Z,2.45
2023-03-06T14:39:36.292Z,2.63
2023-03-06T14:42:16.360Z,2.55
2023-03-06T14:44:42.836Z,3.00
2023-03-06T14:47:20.475Z,2.90
2023-03-06T14:49:46.863Z,1.70
2023-03-06T14:52:20.816Z,2.10
2023-03-06T14:54:48.746Z,1.88
2023-03-06T14:57:21.467Z,2.13
2023-03-06T14:59:58.853Z,1.92
2023-03-06T15:02:30.018Z,1.45
2023-03-06T15:05:17.796Z,1.70
2023-03-06T15:07:45.078Z,2.05
2023-03-06T15:10:29.966Z,1.60
2023-03-06T15:13:08.062Z,1.80
2023-03-06T15:15:34.579Z,1.73
2023-03-06T15:18:01.310Z,1.87
2023-03-06T15:20:38.199Z,1.58
2023-03-06T15:23:27.072Z,1.85
2023-03-06T15:26:29.366Z,1.92
2023-03-06T15:29:26.978Z,1.70
2023-03-06T15:32:13.943Z,1.70
2023-03-06T15:34:40.338Z,1.90
2023-03-06T15:37:27.707Z,1.33
2023-03-06T15:40:09.309Z,1.80
2023-03-06T15:42:36.542Z,1.85
2023-03-06T15:45:15.780Z,1.90
2023-03-06T15:47:44.657Z,1.90
2023-03-06T15:50:29.382Z,2.05
2023-03-06T15:52:55.949Z,1.95
2023-03-06T15:55:25.874Z,2.00
2023-03-06T15:58:03.203Z,2.63
2023-03-06T16:00:32.333Z,2.08
2023-03-06T16:02:58.842Z,2.35
2023-03-06T16:05:26.788Z,2.42
2023-03-06T16:07:53.779Z,2.28
2023-03-06T16:10:23.294Z,2.33
2023-03-06T16:12:52.552Z,2.78
2023-03-06T16:15:22.270Z,3.53
2023-03-06T16:17:49.461Z,3.75
2023-03-06T16:20:18.933Z,4.57
2023-03-06T16:22:49.794Z,4.03
2023-03-06T16:25:17.725Z,4.72
2023-03-06T16:27:49.870Z,4.32
2023-03-06T16:30:22.104Z,3.90
2023-03-06T16:32:49.712Z,4.95
2023-03-06T16:35:16.430Z,3.60
2023-03-06T16:37:42.974Z,5.28
2023-03-06T16:40:22.082Z,5.28
2023-03-06T16:42:50.323Z,5.63
2023-03-06T16:45:18.528Z,5.05
2023-03-06T16:47:46.199Z,5.43
2023-03-06T16:50:39.520Z,3.92
2023-03-06T16:53:06.719Z,4.97
2023-03-06T16:55:33.403Z,6.38
2023-03-06T16:58:00.042Z,6.25
2023-03-06T17:00:31.153Z,5.40
2023-03-06T17:02:57.774Z,7.63
2023-03-06T17:05:24.280Z,5.70
2023-03-06T17:07:50.705Z,6.00
2023-03-06T17:10:19.093Z,6.88
2023-03-06T17:12:45.613Z,6.03
2023-03-06T17:15:12.047Z,6.65
2023-03-06T17:17:38.799Z,5.85
2023-03-06T17:20:08.018Z,6.53
2023-03-06T17:22:35.710Z,5.82
2023-03-06T17:25:04.775Z,5.37
2023-03-06T17:27:31.197Z,5.25
2023-03-06T17:29:58.277Z,6.57
2023-03-06T17:32:25.487Z,6.65
2023-03-06T17:34:52.034Z,6.07
2023-03-06T17:37:18.537Z,5.90
2023-03-06T17:39:45.184Z,6.07
2023-03-06T17:42:11.638Z,5.50
2023-03-06T17:44:38.907Z,4.82
2023-03-06T17:47:05.615Z,5.47
2023-03-06T17:49:32.292Z,5.53
2023-03-06T17:52:04.361Z,5.05
2023-03-06T17:54:31.041Z,5.22
2023-03-06T17:57:01.001Z,3.83
2023-03-06T17:59:28.080Z,5.15
2023-03-06T18:01:58.970Z,4.33
2023-03-06T18:04:26.116Z,4.13
2023-03-06T18:06:52.861Z,4.93
2023-03-06T18:09:19.379Z,6.00
2023-03-06T18:11:45.895Z,5.82
2023-03-06T18:14:12.364Z,4.30
2023-03-06T18:16:38.913Z,4.53
2023-03-06T18:19:05.404Z,4.35
2023-03-06T18:21:31.952Z,5.10
2023-03-06T18:23:58.437Z,4.32
2023-03-06T18:26:27.552Z,7.10
2023-03-06T18:29:01.397Z,5.97
2023-03-06T18:31:36.872Z,6.05
2023-03-06T18:34:07.090Z,6.68
2023-03-06T18:36:34.886Z,6.53
2023-03-06T18:39:03.772Z,3.87
2023-03-06T18:41:31.405Z,4.72
2023-03-06T18:44:00.203Z,6.00
2023-03-06T18:46:31.292Z,6.10
2023-03-06T18:48:57.842Z,5.40
2023-03-06T18:51:24.348Z,5.63
2023-03-06T18:53:50.851Z,5.40
2023-03-06T18:56:21.731Z,5.80
2023-03-06T18:58:48.599Z,7.13
2023-03-06T19:01:15.078Z,5.72
2023-03-06T19:03:41.604Z,6.17
2023-03-06T19:06:13.284Z,5.10
2023-03-06T19:08:40.582Z,5.93
2023-03-06T19:11:09.728Z,3.97
2023-03-06T19:13:36.241Z,5.85
2023-03-06T19:16:03.238Z,6.13
2023-03-06T19:18:30.480Z,6.88
2023-03-06T19:21:14.254Z,5.70
2023-03-06T19:23:41.338Z,6.93
2023-03-06T19:26:08.654Z,3.60
2023-03-06T19:28:37.441Z,7.17
2023-03-06T19:31:19.577Z,6.63
2023-03-06T19:33:47.995Z,7.20
2023-03-06T19:36:16.467Z,7.55
2023-03-06T19:38:43.237Z,7.80
2023-03-06T19:41:13.774Z,5.83
2023-03-06T19:43:41.966Z,7.13
2023-03-06T19:46:14.735Z,7.05
2023-03-06T19:48:42.172Z,7.63
2023-03-06T19:51:08.922Z,5.00
2023-03-06T19:53:35.521Z,7.37
2023-03-06T19:56:06.284Z,7.60
2023-03-06T19:58:33.020Z,7.55
2023-03-06T20:01:07.834Z,8.02
2023-03-06T20:03:34.492Z,7.57
2023-03-06T20:06:01.028Z,6.53
2023-03-06T20:08:27.421Z,5.07
2023-03-06T20:10:53.906Z,7.13
2023-03-06T20:13:20.383Z,7.90
2023-03-06T20:15:46.965Z,8.00
2023-03-06T20:18:13.771Z,6.63
2023-03-06T20:20:40.391Z,8.15
2023-03-06T20:23:06.834Z,7.53
2023-03-06T20:25:36.091Z,5.20
2023-03-06T20:28:03.177Z,6.55
2023-03-06T20:30:37.690Z,5.40
2023-03-06T20:33:05.299Z,6.65
2023-03-06T20:35:31.911Z,7.40
2023-03-06T20:37:59.698Z,7.25
2023-03-06T20:40:26.508Z,8.00
2023-03-06T20:42:52.957Z,5.63
2023-03-06T20:45:19.340Z,7.60
2023-03-06T20:47:47.098Z,7.40
2023-03-06T20:50:15.376Z,7.72
2023-03-06T20:52:41.877Z,8.15
2023-03-06T20:55:08.795Z,5.77
2023-03-06T20:57:35.223Z,6.18
2023-03-06T21:00:01.778Z,8.15
2023-03-06T21:02:28.154Z,8.23
2023-03-06T21:04:54.706Z,7.80
2023-03-06T21:07:21.119Z,9.07
2023-03-06T21:09:49.647Z,6.95
2023-03-06T21:12:16.079Z,8.00
2023-03-06T21:14:42.445Z,5.93
2023-03-06T21:17:08.888Z,7.90
2023-03-06T21:19:36.721Z,7.23
2023-03-06T21:22:03.491Z,8.73
2023-03-06T21:24:29.975Z,6.57
2023-03-06T21:26:56.436Z,7.03
2023-03-06T21:29:22.889Z,7.35
2023-03-06T21:31:49.303Z,7.73
2023-03-06T21:34:15.802Z,7.05
2023-03-06T21:36:43.420Z,7.88
2023-03-06T21:39:09.894Z,7.22
2023-03-06T21:41:38.020Z,6.43
2023-03-06T21:44:05.859Z,7.17
2023-03-06T21:46:33.141Z,7.13
2023-03-06T21:49:01.457Z,7.40
2023-03-06T21:51:28.001Z,7.07
2023-03-06T21:53:54.908Z,3.97
2023-03-06T21:56:23.829Z,6.40
2023-03-06T21:58:50.671Z,6.15
2023-03-06T22:01:20.697Z,6.22
2023-03-06T22:03:47.291Z,5.85
2023-03-06T22:06:16.872Z,6.05
2023-03-06T22:08:43.684Z,5.20
2023-03-06T22:11:13.632Z,4.82
2023-03-06T22:13:43.297Z,5.55
2023-03-06T22:16:10.230Z,5.13
2023-03-06T22:18:37.105Z,4.35
2023-03-06T22:21:12.260Z,4.00
2023-03-06T22:23:40.397Z,4.95
2023-03-06T22:26:11.175Z,3.60
2023-03-06T22:28:38.480Z,3.58
2023-03-06T22:31:09.247Z,3.47
2023-03-06T22:33:36.203Z,3.27
2023-03-06T22:36:06.316Z,3.03
2023-03-06T22:38:34.270Z,2.38
2023-03-06T22:41:00.952Z,2.65
2023-03-06T22:43:27.645Z,3.10
2023-03-06T22:45:54.161Z,2.90
2023-03-06T22:48:20.807Z,2.80
2023-03-06T22:50:47.390Z,2.28
2023-03-06T22:53:13.864Z,2.50
2023-03-06T22:55:40.442Z,2.30
2023-03-06T22:58:06.899Z,2.43
2023-03-06T23:00:33.321Z,2.63
2023-03-06T23:02:59.777Z,2.17
2023-03-06T23:05:27.898Z,2.30
2023-03-06T23:07:55.772Z,2.17
2023-03-06T23:10:22.198Z,2.40
2023-03-06T23:12:48.581Z,1.95
2023-03-06T23:15:15.097Z,2.05
2023-03-06T23:17:41.539Z,1.70
2023-03-06T23:20:10.138Z,1.77
2023-03-06T23:22:36.630Z,1.70
2023-03-06T23:25:03.332Z,1.80
2023-03-06T23:27:29.751Z,1.55
2023-03-06T23:29:58.841Z,1.30
2023-03-06T23:32:25.468Z,1.70
2023-03-06T23:34:52.028Z,1.47
2023-03-06T23:37:18.413Z,1.63
2023-03-06T23:39:44.849Z,1.58
2023-03-06T23:42:11.316Z,1.70
2023-03-06T23:44:37.824Z,2.30
2023-03-06T23:47:04.351Z,2.53
2023-03-06T23:49:30.806Z,2.70
2023-03-06T23:51:57.248Z,2.53
2023-03-06T23:54:23.744Z,1.90
2023-03-06T23:56:50.755Z,3.00
2023-03-06T23:59:17.432Z,4.43
